createdAt,value
2022-11-30T00:00:12.117Z,18.25
2022-11-30T00:02:14.199Z,17.38
2022-11-30T00:04:16.188Z,18.27
2022-11-30T00:06:23.543Z,17.35
2022-11-30T00:08:29.399Z,17.42
2022-11-30T00:10:31.318Z,18.40
2022-11-30T00:12:34.029Z,18.40
2022-11-30T00:14:35.815Z,18.48
2022-11-30T00:16:37.798Z,18.70
2022-11-30T00:18:40.262Z,17.25
2022-11-30T00:20:42.208Z,18.15
2022-11-30T00:22:44.011Z,19.15
2022-11-30T00:24:46.009Z,17.38
2022-11-30T00:26:48.127Z,18.88
2022-11-30T00:28:51.007Z,17.23
2022-11-30T00:31:03.785Z,16.55
2022-11-30T00:33:05.639Z,17.00
2022-11-30T00:35:07.778Z,17.40
2022-11-30T00:37:09.628Z,17.45
2022-11-30T00:39:11.686Z,17.60
2022-11-30T00:41:14.159Z,16.92
2022-11-30T00:43:16.039Z,16.23
2022-11-30T00:45:17.907Z,17.15
2022-11-30T00:47:19.787Z,17.63
2022-11-30T00:49:21.540Z,16.17
2022-11-30T00:51:23.411Z,16.52
2022-11-30T00:53:25.228Z,16.10
2022-11-30T00:55:30.353Z,16.63
2022-11-30T00:57:33.178Z,15.88
2022-11-30T00:59:35.158Z,14.55
2022-11-30T01:01:37.270Z,15.13
2022-11-30T01:03:39.348Z,16.92
2022-11-30T01:05:43.373Z,15.35
2022-11-30T01:07:45.228Z,15.10
2022-11-30T01:09:47.030Z,14.57
2022-11-30T01:11:49.068Z,15.80
2022-11-30T01:13:51.817Z,15.90
2022-11-30T01:15:53.815Z,13.77
2022-11-30T01:17:55.758Z,14.77
2022-11-30T01:19:57.696Z,13.90
2022-11-30T01:21:59.483Z,13.68
2022-11-30T01:24:01.377Z,13.80
2022-11-30T01:26:03.492Z,12.10
2022-11-30T01:28:05.600Z,12.40
2022-11-30T01:30:08.557Z,13.90
2022-11-30T01:32:10.429Z,12.60
2022-11-30T01:34:12.225Z,12.23
2022-11-30T01:36:16.880Z,12.75
2022-11-30T01:38:18.847Z,12.00
2022-11-30T01:40:20.747Z,11.95
2022-11-30T01:42:22.524Z,12.18
2022-11-30T01:44:26.735Z,11.52
2022-11-30T01:46:28.994Z,11.13
2022-11-30T01:48:31.537Z,11.75
2022-11-30T01:50:36.128Z,11.70
2022-11-30T01:52:41.868Z,11.20
2022-11-30T01:54:52.045Z,11.63
2022-11-30T01:56:59.539Z,12.25
2022-11-30T01:59:01.619Z,11.20
2022-11-30T02:01:04.355Z,10.95
2022-11-30T02:03:16.596Z,11.40
2022-11-30T02:05:19.287Z,11.98
2022-11-30T02:07:21.260Z,11.73
2022-11-30T02:09:24.309Z,11.98
2022-11-30T02:11:28.696Z,11.88
2022-11-30T02:13:50.197Z,11.98
2022-11-30T02:16:04.484Z,11.63
2022-11-30T02:18:14.698Z,11.68
2022-11-30T02:20:26.529Z,12.45
2022-11-30T02:22:50.768Z,11.35
2022-11-30T02:25:03.548Z,14.10
2022-11-30T02:27:22.433Z,12.02
2022-11-30T02:29:28.447Z,11.02
2022-11-30T02:31:54.198Z,11.27
2022-11-30T02:33:59.687Z,11.50
2022-11-30T02:36:05.418Z,11.60
2022-11-30T02:38:07.962Z,10.90
2022-11-30T02:40:16.387Z,11.85
2022-11-30T02:42:18.327Z,10.63
2022-11-30T02:44:23.044Z,10.70
2022-11-30T02:46:35.493Z,11.55
2022-11-30T02:48:56.937Z,11.80
2022-11-30T02:51:02.980Z,11.05
2022-11-30T02:53:05.009Z,11.38
2022-11-30T02:55:10.618Z,11.15
2022-11-30T02:57:12.606Z,10.65
2022-11-30T02:59:14.548Z,11.50
2022-11-30T03:01:16.390Z,10.77
2022-11-30T03:03:18.386Z,12.05
2022-11-30T03:05:20.182Z,10.55
2022-11-30T03:07:22.036Z,10.15
2022-11-30T03:09:23.921Z,11.63
2022-11-30T03:11:26.277Z,10.82
2022-11-30T03:13:28.476Z,9.82
2022-11-30T03:15:30.869Z,11.10
2022-11-30T03:17:38.417Z,11.00
2022-11-30T03:19:40.362Z,9.98
2022-11-30T03:21:42.138Z,10.90
2022-11-30T03:23:44.028Z,10.60
2022-11-30T03:25:46.035Z,10.00
2022-11-30T03:27:48.161Z,9.75
2022-11-30T03:29:50.358Z,9.30
2022-11-30T03:31:55.447Z,9.95
2022-11-30T03:34:01.526Z,10.27
2022-11-30T03:36:17.661Z,9.70
2022-11-30T03:38:19.981Z,10.00
2022-11-30T03:40:21.981Z,10.80
2022-11-30T03:42:24.216Z,10.45
2022-11-30T03:44:25.986Z,10.55
2022-11-30T03:46:31.383Z,10.15
2022-11-30T03:48:39.826Z,9.10
2022-11-30T03:50:42.307Z,9.65
2022-11-30T03:52:44.192Z,9.70
2022-11-30T03:54:47.044Z,9.95
2022-11-30T03:56:49.137Z,9.35
2022-11-30T03:58:52.013Z,9.30
2022-11-30T04:01:04.991Z,9.82
2022-11-30T04:03:10.905Z,8.25
2022-11-30T04:05:13.899Z,9.85
2022-11-30T04:07:15.819Z,9.82
2022-11-30T04:09:17.671Z,10.25
2022-11-30T04:11:19.431Z,10.48
2022-11-30T04:13:22.318Z,9.70
2022-11-30T04:15:24.463Z,9.50
2022-11-30T04:17:27.382Z,8.90
2022-11-30T04:19:30.440Z,9.90
2022-11-30T04:21:36.621Z,8.70
2022-11-30T04:23:40.260Z,9.52
2022-11-30T04:25:42.357Z,9.27
2022-11-30T04:27:47.668Z,9.02
2022-11-30T04:29:49.825Z,8.85
2022-11-30T04:31:52.406Z,9.05
2022-11-30T04:33:54.890Z,8.45
2022-11-30T04:36:07.274Z,8.93
2022-11-30T04:38:09.133Z,8.38
2022-11-30T04:40:12.197Z,9.50
2022-11-30T04:42:14.066Z,8.55
2022-11-30T04:44:15.857Z,9.35
2022-11-30T04:46:20.974Z,9.32
2022-11-30T04:48:22.961Z,8.93
2022-11-30T04:50:27.667Z,9.13
2022-11-30T04:52:32.760Z,9.27
2022-11-30T04:54:34.718Z,8.57
2022-11-30T04:56:38.505Z,7.82
2022-11-30T04:58:40.416Z,9.27
2022-11-30T05:00:45.977Z,8.00
2022-11-30T05:02:52.954Z,8.48
2022-11-30T05:04:55.304Z,8.63
2022-11-30T05:06:58.369Z,8.90
2022-11-30T05:09:00.331Z,8.65
2022-11-30T05:11:02.181Z,8.30
2022-11-30T05:13:04.393Z,8.55
2022-11-30T05:15:07.536Z,8.95
2022-11-30T05:17:09.280Z,9.88
2022-11-30T05:19:11.492Z,8.57
2022-11-30T05:21:14.952Z,9.00
2022-11-30T05:23:19.742Z,8.52
2022-11-30T05:25:22.016Z,9.10
2022-11-30T05:27:26.787Z,8.38
2022-11-30T05:29:32.658Z,8.70
2022-11-30T05:31:40.820Z,9.05
2022-11-30T05:33:45.981Z,9.05
2022-11-30T05:35:47.947Z,9.35
2022-11-30T05:37:49.732Z,7.28
2022-11-30T05:39:51.676Z,8.55
2022-11-30T05:41:53.808Z,8.93
2022-11-30T05:43:56.298Z,9.88
2022-11-30T05:46:01.287Z,8.10
2022-11-30T05:48:03.155Z,8.85
2022-11-30T05:50:06.119Z,8.25
2022-11-30T05:52:08.317Z,8.50
2022-11-30T05:54:10.156Z,8.57
2022-11-30T05:56:15.622Z,9.07
2022-11-30T05:58:34.141Z,8.55
2022-11-30T06:00:36.095Z,8.93
2022-11-30T06:02:38.125Z,9.65
2022-11-30T06:04:42.761Z,9.10
2022-11-30T06:06:45.296Z,8.07
2022-11-30T06:08:48.856Z,8.52
2022-11-30T06:10:51.190Z,8.07
2022-11-30T06:12:53.823Z,8.95
2022-11-30T06:14:56.066Z,8.65
2022-11-30T06:16:58.141Z,8.88
2022-11-30T06:19:00.323Z,9.00
2022-11-30T06:21:04.405Z,8.68
2022-11-30T06:23:07.608Z,8.60
2022-11-30T06:25:10.721Z,8.80
2022-11-30T06:27:13.152Z,8.40
2022-11-30T06:29:15.191Z,8.38
2022-11-30T06:31:18.958Z,9.32
2022-11-30T06:33:24.313Z,8.00
2022-11-30T06:35:26.166Z,8.88
2022-11-30T06:37:28.033Z,9.38
2022-11-30T06:39:57.708Z,8.82
2022-11-30T06:41:54.614Z,9.18
2022-11-30T06:43:56.647Z,8.45
2022-11-30T06:45:58.478Z,9.82
2022-11-30T06:48:00.358Z,9.93
2022-11-30T06:50:02.225Z,10.43
2022-11-30T06:52:04.013Z,9.73
2022-11-30T06:54:10.035Z,10.13
2022-11-30T06:56:14.985Z,10.27
2022-11-30T06:58:17.317Z,9.70
2022-11-30T07:00:21.321Z,8.95
2022-11-30T07:02:24.989Z,8.70
2022-11-30T07:04:38.912Z,8.77
2022-11-30T07:06:41.238Z,9.70
2022-11-30T07:08:46.161Z,9.15
2022-11-30T07:11:01.616Z,9.38
2022-11-30T07:13:21.796Z,9.15
2022-11-30T07:16:06.846Z,9.25
2022-11-30T07:18:18.623Z,10.10
2022-11-30T07:20:26.008Z,9.73
2022-11-30T07:22:35.898Z,9.20
2022-11-30T07:24:52.836Z,9.65
2022-11-30T07:27:05.816Z,9.25
2022-11-30T07:29:17.887Z,10.10
2022-11-30T07:31:24.138Z,10.48
2022-11-30T07:33:45.422Z,10.73
2022-11-30T07:36:08.349Z,10.27
2022-11-30T07:38:16.377Z,10.45
2022-11-30T07:40:22.826Z,9.88
2022-11-30T07:42:34.786Z,10.40
2022-11-30T07:44:42.087Z,10.70
2022-11-30T07:47:11.950Z,10.93
2022-11-30T07:49:33.168Z,11.30
2022-11-30T07:51:52.037Z,10.63
2022-11-30T07:54:08.927Z,10.65
2022-11-30T07:59:11.052Z,12.13
2022-11-30T08:01:16.248Z,11.13
2022-11-30T08:03:18.161Z,10.90
2022-11-30T08:05:20.206Z,10.55
2022-11-30T08:07:22.002Z,10.77
2022-11-30T08:09:23.948Z,11.23
2022-11-30T08:11:28.527Z,11.48
2022-11-30T08:13:31.630Z,10.73
2022-11-30T08:15:33.948Z,12.38
2022-11-30T08:17:36.229Z,12.30
2022-11-30T08:19:38.072Z,13.30
2022-11-30T08:21:40.042Z,12.63
2022-11-30T08:23:43.944Z,14.00
2022-11-30T08:25:45.891Z,14.05
2022-11-30T08:27:47.811Z,14.18
2022-11-30T08:29:49.629Z,14.05
2022-11-30T08:31:51.561Z,14.38
2022-11-30T08:33:58.356Z,14.48
2022-11-30T08:36:09.131Z,13.52
2022-11-30T08:40:13.007Z,13.60
2022-11-30T08:42:15.069Z,14.43
2022-11-30T08:44:17.070Z,16.00
2022-11-30T08:46:49.721Z,15.00
2022-11-30T08:48:43.821Z,15.20
2022-11-30T08:50:45.883Z,14.32
2022-11-30T08:52:47.733Z,15.73
2022-11-30T08:54:49.947Z,14.57
2022-11-30T08:56:52.837Z,15.48
2022-11-30T08:58:56.319Z,16.38
2022-11-30T09:01:07.607Z,14.90
2022-11-30T09:03:09.488Z,14.93
2022-11-30T09:05:11.529Z,14.90
2022-11-30T09:07:13.807Z,14.68
2022-11-30T09:09:15.706Z,13.20
2022-11-30T09:11:24.971Z,14.18
2022-11-30T09:13:27.256Z,14.45
2022-11-30T09:15:29.171Z,13.00
2022-11-30T09:17:31.086Z,13.65
2022-11-30T09:19:32.972Z,13.98
2022-11-30T09:21:34.746Z,13.32
2022-11-30T09:23:37.592Z,14.07
2022-11-30T09:25:39.531Z,14.23
2022-11-30T09:27:41.391Z,14.07
2022-11-30T09:29:43.274Z,14.32
2022-11-30T09:31:45.077Z,14.73
2022-11-30T09:33:47.492Z,14.77
2022-11-30T09:35:59.125Z,16.27
2022-11-30T09:38:01.172Z,16.15
2022-11-30T09:40:03.010Z,15.10
2022-11-30T09:42:21.361Z,16.00
2022-11-30T09:44:39.212Z,14.85
2022-11-30T09:46:49.392Z,16.17
2022-11-30T09:49:05.986Z,15.70
2022-11-30T09:51:15.392Z,15.18
2022-11-30T09:53:29.788Z,16.50
2022-11-30T09:55:39.598Z,15.90
2022-11-30T09:57:47.146Z,15.55
2022-11-30T09:59:55.848Z,17.98
2022-11-30T10:02:02.398Z,15.35
2022-11-30T10:04:04.551Z,15.90
2022-11-30T10:06:12.788Z,16.50
2022-11-30T10:08:31.091Z,15.82
2022-11-30T10:11:02.685Z,15.52
2022-11-30T10:13:21.567Z,16.50
2022-11-30T10:15:37.165Z,16.55
2022-11-30T10:17:56.868Z,15.75
2022-11-30T10:20:15.372Z,16.30
2022-11-30T10:22:36.713Z,15.27
2022-11-30T10:24:39.897Z,15.52
2022-11-30T10:26:52.587Z,15.93
2022-11-30T10:28:58.133Z,16.50
2022-11-30T10:31:01.992Z,16.20
2022-11-30T10:33:18.792Z,16.77
2022-11-30T10:35:33.628Z,15.45
2022-11-30T10:37:37.572Z,14.50
2022-11-30T10:39:48.171Z,16.42
2022-11-30T10:42:00.075Z,15.68
2022-11-30T10:44:11.616Z,15.05
2022-11-30T10:46:24.921Z,15.02
2022-11-30T10:48:38.037Z,15.15
2022-11-30T10:50:41.326Z,15.25
2022-11-30T10:52:51.574Z,16.15
2022-11-30T10:55:00.583Z,16.48
2022-11-30T10:57:07.557Z,15.05
2022-11-30T10:59:17.215Z,15.18
2022-11-30T11:01:30.092Z,15.20
2022-11-30T11:03:32.623Z,15.02
2022-11-30T11:05:34.517Z,15.15
2022-11-30T11:07:48.403Z,15.07
2022-11-30T11:09:51.602Z,15.57
2022-11-30T11:11:55.764Z,15.27
2022-11-30T11:14:19.340Z,16.25
2022-11-30T11:16:22.708Z,15.07
2022-11-30T11:18:27.949Z,14.98
2022-11-30T11:20:32.120Z,16.20
2022-11-30T11:22:34.498Z,15.43
2022-11-30T11:24:36.855Z,16.23
2022-11-30T11:26:54.535Z,14.55
2022-11-30T11:29:00.117Z,14.65
2022-11-30T11:31:19.407Z,13.80
2022-11-30T11:33:26.661Z,13.68
2022-11-30T11:35:37.720Z,13.98
2022-11-30T11:37:46.400Z,13.45
2022-11-30T11:40:01.087Z,13.07
2022-11-30T11:42:04.426Z,13.40
2022-11-30T11:44:09.856Z,13.00
2022-11-30T11:46:14.676Z,13.02
2022-11-30T11:48:33.724Z,13.25
2022-11-30T11:51:08.911Z,12.68
2022-11-30T11:53:23.189Z,11.57
2022-11-30T11:55:25.357Z,12.25
2022-11-30T11:57:39.397Z,10.93
2022-11-30T11:59:46.910Z,11.70
2022-11-30T12:01:53.778Z,11.23
2022-11-30T12:04:02.318Z,12.05
2022-11-30T12:06:10.733Z,10.85
2022-11-30T12:08:14.807Z,12.55
2022-11-30T12:10:50.544Z,12.05
2022-11-30T12:12:47.528Z,11.32
2022-11-30T12:14:51.889Z,11.30
2022-11-30T12:16:57.425Z,11.93
2022-11-30T12:19:05.743Z,11.30
2022-11-30T12:21:14.924Z,10.68
2022-11-30T12:23:23.269Z,10.43
2022-11-30T12:25:27.561Z,10.50
2022-11-30T12:27:33.320Z,11.25
2022-11-30T12:29:41.280Z,11.10
2022-11-30T12:31:57.639Z,10.02
2022-11-30T12:34:08.104Z,8.95
2022-11-30T12:36:15.895Z,9.63
2022-11-30T12:38:26.241Z,9.18
2022-11-30T12:40:36.980Z,9.02
2022-11-30T12:42:44.364Z,9.75
2022-11-30T12:44:47.433Z,9.13
2022-11-30T12:46:54.202Z,10.18
2022-11-30T12:49:02.751Z,9.75
2022-11-30T12:51:11.130Z,8.32
2022-11-30T12:53:22.564Z,6.95
2022-11-30T12:55:31.109Z,7.22
2022-11-30T12:57:42.347Z,7.97
2022-11-30T12:59:55.577Z,8.18
2022-11-30T13:02:01.161Z,9.50
2022-11-30T13:04:09.896Z,8.48
2022-11-30T13:06:17.611Z,8.32
2022-11-30T13:08:26.989Z,8.38
2022-11-30T13:10:35.466Z,7.28
2022-11-30T13:12:43.254Z,7.95
2022-11-30T13:14:46.864Z,7.38
2022-11-30T13:16:56.058Z,7.95
2022-11-30T13:19:08.367Z,7.00
2022-11-30T13:21:21.482Z,7.47
2022-11-30T13:23:31.588Z,7.78
2022-11-30T13:28:06.908Z,8.98
2022-11-30T13:30:12.714Z,8.60
2022-11-30T13:34:38.890Z,9.68
2022-11-30T13:36:45.122Z,9.48
2022-11-30T13:38:47.951Z,10.13
2022-11-30T13:40:57.516Z,10.30
2022-11-30T13:42:59.582Z,10.52
2022-11-30T13:45:12.518Z,11.00
2022-11-30T13:47:19.586Z,9.25
2022-11-30T13:49:27.536Z,7.75
2022-11-30T13:51:35.442Z,6.75
2022-11-30T13:53:39.259Z,7.60
2022-11-30T13:55:43.240Z,8.57
2022-11-30T13:57:46.188Z,8.15
2022-11-30T14:00:03.954Z,7.63
2022-11-30T14:02:18.060Z,7.20
2022-11-30T14:04:23.022Z,8.18
2022-11-30T14:06:31.271Z,7.63
2022-11-30T14:08:37.289Z,7.88
2022-11-30T14:10:42.074Z,7.97
2022-11-30T14:12:46.285Z,8.82
2022-11-30T14:14:48.832Z,8.93
2022-11-30T14:16:51.352Z,9.02
2022-11-30T14:18:56.066Z,9.50
2022-11-30T14:21:03.093Z,9.07
2022-11-30T14:23:08.978Z,8.98
2022-11-30T14:25:17.150Z,9.63
2022-11-30T14:27:25.199Z,9.15
2022-11-30T14:29:35.735Z,10.00
2022-11-30T14:31:49.821Z,9.95
2022-11-30T14:33:55.033Z,9.82
2022-11-30T14:36:00.764Z,9.77
2022-11-30T14:38:03.957Z,9.15
2022-11-30T14:40:07.717Z,9.30
2022-11-30T14:42:16.103Z,10.75
2022-11-30T14:44:18.328Z,9.60
2022-11-30T14:46:20.696Z,9.05
2022-11-30T14:48:22.820Z,10.18
2022-11-30T14:50:26.710Z,10.35
2022-11-30T14:52:37.649Z,11.18
2022-11-30T14:54:44.001Z,10.82
2022-11-30T14:56:50.661Z,10.73
2022-11-30T14:59:03.968Z,11.07
2022-11-30T15:01:19.839Z,11.48
2022-11-30T15:03:28.625Z,11.85
2022-11-30T15:05:31.169Z,13.88
2022-11-30T15:07:35.467Z,13.63
2022-11-30T15:09:38.207Z,12.63
2022-11-30T15:11:43.955Z,13.30
2022-11-30T15:13:51.638Z,14.25
2022-11-30T15:15:56.388Z,13.40
2022-11-30T15:18:13.374Z,14.05
2022-11-30T15:20:21.934Z,13.40
2022-11-30T15:22:25.312Z,14.75
2022-11-30T15:24:30.333Z,13.77
2022-11-30T15:26:38.956Z,13.73
2022-11-30T15:28:46.196Z,14.27
2022-11-30T15:30:55.807Z,14.80
2022-11-30T15:32:58.228Z,14.27
2022-11-30T15:35:01.381Z,14.77
2022-11-30T15:37:04.063Z,14.20
2022-11-30T15:39:08.768Z,14.27
2022-11-30T15:41:18.956Z,13.68
2022-11-30T15:43:25.236Z,14.40
2022-11-30T15:45:32.471Z,14.27
2022-11-30T15:47:38.526Z,15.52
2022-11-30T15:49:53.265Z,15.63
2022-11-30T15:52:05.656Z,14.25
2022-11-30T15:54:08.161Z,15.05
2022-11-30T15:56:23.927Z,15.13
2022-11-30T15:58:30.359Z,15.02
2022-11-30T16:00:32.768Z,14.05
2022-11-30T16:02:37.381Z,14.15
2022-11-30T16:04:45.904Z,15.60
2022-11-30T16:06:48.914Z,14.45
2022-11-30T16:08:51.758Z,14.90
2022-11-30T16:10:55.294Z,14.93
2022-11-30T16:12:57.570Z,14.52
2022-11-30T16:15:00.082Z,14.25
2022-11-30T16:17:08.571Z,14.23
2022-11-30T16:19:12.943Z,14.10
2022-11-30T16:21:18.080Z,14.07
2022-11-30T16:23:21.357Z,14.00
2022-11-30T16:25:27.067Z,13.00
2022-11-30T16:27:29.401Z,12.35
2022-11-30T16:29:32.207Z,10.98
2022-11-30T16:31:35.536Z,10.02
2022-11-30T16:33:38.021Z,10.85
2022-11-30T16:35:47.845Z,12.98
2022-11-30T16:37:51.255Z,10.68
2022-11-30T16:39:55.182Z,10.35
2022-11-30T16:41:57.492Z,10.60
2022-11-30T16:44:00.109Z,10.45
2022-11-30T16:46:03.948Z,10.73
2022-11-30T16:48:22.695Z,9.93
2022-11-30T16:50:33.724Z,10.68
2022-11-30T16:54:43.022Z,10.65
2022-11-30T16:56:47.080Z,10.77
2022-11-30T16:58:50.163Z,10.43
2022-11-30T17:01:21.092Z,11.45
2022-11-30T17:03:28.744Z,10.32
2022-11-30T17:05:32.468Z,11.02
2022-11-30T17:07:38.750Z,10.38
2022-11-30T17:09:51.960Z,10.43
2022-11-30T17:12:03.508Z,10.88
2022-11-30T17:14:10.069Z,11.25
2022-11-30T17:16:18.206Z,10.63
2022-11-30T17:18:29.721Z,11.02
2022-11-30T17:20:31.867Z,11.93
2022-11-30T17:22:37.236Z,10.98
2022-11-30T17:24:38.869Z,11.18
2022-11-30T17:26:40.734Z,10.57
2022-11-30T17:28:42.487Z,11.07
2022-11-30T17:30:44.258Z,10.07
2022-11-30T17:32:46.317Z,11.30
2022-11-30T17:34:48.283Z,12.32
2022-11-30T17:36:51.258Z,12.00
2022-11-30T17:38:53.013Z,11.82
2022-11-30T17:40:54.948Z,11.98
2022-11-30T17:42:56.671Z,11.93
2022-11-30T17:44:58.545Z,12.82
2022-11-30T17:47:04.516Z,12.98
2022-11-30T17:49:06.436Z,12.63
2022-11-30T17:51:09.853Z,12.38
2022-11-30T17:53:17.829Z,11.88
2022-11-30T17:55:20.024Z,12.52
2022-11-30T17:57:22.000Z,12.45
2022-11-30T17:59:23.616Z,12.88
2022-11-30T18:01:26.882Z,13.90
2022-11-30T18:03:29.916Z,13.48
2022-11-30T18:05:38.658Z,12.55
2022-11-30T18:07:40.500Z,11.88
2022-11-30T18:09:43.067Z,11.63
2022-11-30T18:11:44.972Z,13.05
2022-11-30T18:13:48.110Z,12.40
2022-11-30T18:15:50.344Z,12.68
2022-11-30T18:17:52.698Z,12.93
2022-11-30T18:19:54.679Z,11.57
2022-11-30T18:21:56.512Z,11.73
2022-11-30T18:23:59.277Z,12.55
2022-11-30T18:26:03.395Z,12.15
2022-11-30T18:28:05.126Z,11.77
2022-11-30T18:30:10.293Z,12.90
2022-11-30T18:32:12.469Z,12.70
2022-11-30T18:34:14.602Z,13.43
2022-11-30T18:36:16.358Z,13.45
2022-11-30T18:38:18.072Z,13.18
2022-11-30T18:40:19.756Z,14.75
2022-11-30T18:42:22.686Z,13.25
2022-11-30T18:44:24.369Z,13.00
2022-11-30T18:46:26.796Z,14.32
2022-11-30T18:48:28.614Z,14.73
2022-11-30T18:50:30.288Z,13.38
2022-11-30T18:52:31.973Z,14.20
2022-11-30T18:54:33.657Z,12.73
2022-11-30T18:56:37.797Z,13.65
2022-11-30T18:58:43.525Z,13.52
2022-11-30T19:00:45.272Z,12.98
2022-11-30T19:02:48.184Z,14.48
2022-11-30T19:04:50.272Z,13.75
2022-11-30T19:06:52.610Z,14.45
2022-11-30T19:08:54.317Z,13.90
2022-11-30T19:11:05.019Z,13.90
2022-11-30T19:13:07.627Z,14.07
2022-11-30T19:15:09.731Z,14.50
2022-11-30T19:17:11.715Z,13.15
2022-11-30T19:19:14.710Z,13.57
2022-11-30T19:21:18.485Z,12.95
2022-11-30T19:23:20.112Z,13.70
2022-11-30T19:25:21.759Z,13.13
2022-11-30T19:27:23.533Z,13.18
2022-11-30T19:29:33.499Z,12.80
2022-11-30T19:31:35.237Z,13.23
2022-11-30T19:33:38.760Z,12.82
2022-11-30T19:35:42.122Z,14.07
2022-11-30T19:37:43.730Z,12.23
2022-11-30T19:39:45.897Z,14.23
2022-11-30T19:41:48.351Z,13.60
2022-11-30T19:44:04.053Z,12.75
2022-11-30T19:46:24.807Z,12.95
2022-11-30T19:48:26.503Z,12.10
2022-11-30T19:50:28.258Z,11.95
2022-11-30T19:52:30.048Z,12.45
2022-11-30T19:54:31.790Z,12.48
2022-11-30T19:56:37.352Z,11.48
2022-11-30T19:58:39.862Z,12.20
2022-11-30T20:00:41.506Z,12.68
2022-11-30T20:02:43.224Z,11.27
2022-11-30T20:04:44.908Z,9.70
2022-11-30T20:06:46.568Z,10.02
2022-11-30T20:08:48.307Z,10.57
2022-11-30T20:10:50.210Z,10.75
2022-11-30T20:12:51.880Z,10.00
2022-11-30T20:14:54.466Z,9.48
2022-11-30T20:16:56.182Z,9.77
2022-11-30T20:19:03.132Z,10.27
2022-11-30T20:21:13.078Z,8.75
2022-11-30T20:23:14.765Z,8.27
2022-11-30T20:25:16.735Z,17.15
2022-11-30T20:27:22.709Z,11.60
2022-11-30T20:29:24.393Z,15.68
2022-11-30T20:31:27.865Z,9.75
2022-11-30T20:33:29.520Z,8.32
2022-11-30T20:35:31.178Z,7.85
2022-11-30T20:37:34.429Z,8.45
2022-11-30T20:39:37.949Z,9.52
2022-11-30T20:41:42.899Z,10.82
2022-11-30T20:43:44.715Z,9.73
2022-11-30T20:45:46.322Z,9.13
2022-11-30T20:47:48.054Z,8.70
2022-11-30T20:49:50.432Z,9.50
2022-11-30T20:51:52.939Z,8.98
2022-11-30T20:53:54.802Z,9.75
2022-11-30T20:56:00.550Z,9.27
2022-11-30T20:58:02.489Z,8.48
2022-11-30T21:00:07.618Z,9.07
2022-11-30T21:02:13.393Z,10.43
2022-11-30T21:04:15.175Z,9.50
2022-11-30T21:06:27.027Z,11.30
2022-11-30T21:08:31.588Z,10.70
2022-11-30T21:10:33.226Z,10.48
2022-11-30T21:12:34.981Z,13.32
2022-11-30T21:14:37.131Z,11.93
2022-11-30T21:16:39.726Z,11.38
2022-11-30T21:18:44.504Z,11.80
2022-11-30T21:20:46.153Z,11.38
2022-11-30T21:22:47.963Z,11.45
2022-11-30T21:24:50.470Z,11.32
2022-11-30T21:26:52.734Z,12.73
2022-11-30T21:28:58.733Z,11.02
2022-11-30T21:31:00.554Z,11.82
2022-11-30T21:33:02.331Z,12.75
2022-11-30T21:35:04.180Z,13.32
2022-11-30T21:37:05.929Z,13.32
2022-11-30T21:39:08.462Z,12.85
2022-11-30T21:41:14.343Z,13.82
2022-11-30T21:43:15.979Z,13.52
2022-11-30T21:45:17.660Z,13.38
2022-11-30T21:47:19.762Z,12.55
2022-11-30T21:49:21.467Z,13.73
2022-11-30T21:51:25.580Z,13.50
2022-11-30T21:53:28.235Z,14.13
2022-11-30T21:55:30.027Z,13.18
2022-11-30T21:57:31.963Z,14.85
2022-11-30T21:59:33.591Z,14.07
2022-11-30T22:01:37.899Z,13.52
2022-11-30T22:03:39.726Z,14.38
2022-11-30T22:05:41.404Z,14.45
2022-11-30T22:07:45.357Z,13.02
2022-11-30T22:09:47.173Z,14.55
2022-11-30T22:11:49.041Z,13.07
2022-11-30T22:13:54.451Z,13.10
2022-11-30T22:16:18.522Z,12.70
2022-11-30T22:18:20.262Z,13.20
2022-11-30T22:20:22.057Z,14.30
2022-11-30T22:22:23.734Z,13.82
2022-11-30T22:24:25.370Z,12.90
2022-11-30T22:26:38.090Z,13.38
2022-11-30T22:28:42.775Z,14.65
2022-11-30T22:30:44.718Z,12.65
2022-11-30T22:32:46.388Z,12.30
2022-11-30T22:34:48.144Z,13.48
2022-11-30T22:36:50.141Z,12.40
2022-11-30T22:38:57.428Z,13.73
2022-11-30T22:41:16.871Z,11.85
2022-11-30T22:43:18.560Z,11.98
2022-11-30T22:45:20.245Z,12.73
2022-11-30T22:47:21.912Z,12.68
2022-11-30T22:49:23.788Z,11.55
2022-11-30T22:51:27.695Z,11.25
2022-11-30T22:53:29.532Z,12.20
2022-11-30T22:55:32.505Z,11.75
2022-11-30T22:57:34.343Z,11.95
2022-11-30T22:59:35.971Z,11.75
2022-11-30T23:01:42.256Z,11.13
2022-11-30T23:03:45.455Z,11.55
2022-11-30T23:05:47.194Z,11.48
2022-11-30T23:07:48.901Z,11.45
2022-11-30T23:09:50.737Z,11.50
2022-11-30T23:11:52.693Z,12.15
2022-11-30T23:13:54.590Z,12.32
2022-11-30T23:16:00.054Z,11.32
2022-11-30T23:18:30.999Z,11.48
2022-11-30T23:20:35.615Z,9.73
2022-11-30T23:22:38.003Z,11.35
2022-11-30T23:24:39.935Z,11.48
2022-11-30T23:26:43.084Z,11.32
2022-11-30T23:28:46.745Z,11.43
2022-11-30T23:30:48.956Z,11.00
2022-11-30T23:32:55.195Z,11.50
2022-11-30T23:34:57.352Z,11.13
2022-11-30T23:36:59.415Z,11.45
2022-11-30T23:39:05.188Z,10.98
2022-11-30T23:41:12.242Z,11.45
2022-11-30T23:43:14.259Z,10.85
2022-11-30T23:45:16.419Z,10.82
2022-11-30T23:47:19.260Z,10.43
2022-11-30T23:49:21.437Z,11.18
2022-11-30T23:51:23.911Z,11.38
2022-11-30T23:53:26.198Z,10.95
2022-11-30T23:55:29.031Z,10.38
2022-11-30T23:57:30.654Z,10.13
2022-11-30T23:59:32.256Z,10.48
